Time;durP1;ratioP1;P1;durP2;ratioP2;P2;SDS_P1;SDS_P2;PMS_P1;PMS_P2;Temp;Humidity;BMP_temperature;BMP_pressure;BME280_temperature;BME280_humidity;BME280_pressure;Samples;Min_cycle;Max_cycle;Signal;HPM_P1;HPM_P2
2023/06/10 05:03:47;;;;;;;6.70;5.10;;;17.60;95.10;;;;;;4851572;29;20050;-70
2023/06/10 05:06:12;;;;;;;7.18;5.13;;;17.70;94.60;;;;;;4853530;29;20250;-71
2023/06/10 05:08:38;;;;;;;6.18;4.72;;;17.80;94.80;;;;;;4837006;29;20265;-70
2023/06/10 05:11:04;;;;;;;5.68;4.70;;;17.90;94.60;;;;;;4853780;29;20248;-71
2023/06/10 05:13:29;;;;;;;8.27;6.00;;;17.90;94.40;;;;;;4853282;29;20214;-71
2023/06/10 05:15:55;;;;;;;8.25;5.82;;;18.00;94.30;;;;;;4853930;29;20034;-71
2023/06/10 05:18:21;;;;;;;8.13;5.15;;;18.10;94.30;;;;;;4853654;29;20300;-71
2023/06/10 05:20:47;;;;;;;6.97;4.95;;;18.10;94.30;;;;;;4853557;29;20219;-71
2023/06/10 05:23:12;;;;;;;6.15;4.82;;;18.20;94.10;;;;;;4853491;29;20037;-70
2023/06/10 05:25:38;;;;;;;5.72;4.63;;;18.40;94.20;;;;;;4852639;29;20035;-72
2023/06/10 05:28:04;;;;;;;7.30;5.53;;;18.50;94.20;;;;;;4853444;29;20143;-71
2023/06/10 05:30:29;;;;;;;7.35;5.10;;;18.50;94.10;;;;;;4853096;29;20064;-71
2023/06/10 05:32:56;;;;;;;7.88;5.13;;;18.60;94.00;;;;;;4853478;29;20033;-71
2023/06/10 05:35:22;;;;;;;6.50;4.95;;;18.70;93.80;;;;;;4853332;29;20030;-70
2023/06/10 05:37:48;;;;;;;7.60;5.75;;;18.80;93.90;;;;;;4853125;29;20038;-72
2023/06/10 05:40:14;;;;;;;6.25;5.20;;;18.90;93.70;;;;;;4852942;29;20037;-72
2023/06/10 05:42:40;;;;;;;7.25;5.38;;;19.00;93.50;;;;;;4852664;29;20093;-72
2023/06/10 05:45:06;;;;;;;8.50;5.95;;;19.10;93.30;;;;;;4853137;29;20036;-71
2023/06/10 05:47:32;;;;;;;8.15;5.05;;;19.20;93.20;;;;;;4852437;29;20079;-72
2023/06/10 05:50:01;;;;;;;6.47;4.93;;;19.20;92.90;;;;;;4852937;29;20030;-71
2023/06/10 05:52:26;;;;;;;5.35;4.60;;;19.30;92.90;;;;;;4852128;29;20026;-72
2023/06/10 05:54:54;;;;;;;6.38;4.38;;;19.40;92.80;;;;;;4852650;29;20086;-70
2023/06/10 05:57:20;;;;;;;7.25;4.68;;;19.50;92.90;;;;;;4852642;29;20279;-71
2023/06/10 05:59:46;;;;;;;7.00;4.88;;;19.50;92.50;;;;;;4852248;29;20386;-71
2023/06/10 06:02:11;;;;;;;6.93;4.82;;;19.50;92.50;;;;;;4852194;29;20045;-71
2023/06/10 06:04:37;;;;;;;8.43;4.20;;;19.60;92.40;;;;;;4852463;29;20062;-72
2023/06/10 06:07:03;;;;;;;6.15;4.35;;;19.80;92.50;;;;;;4852705;29;20037;-71
2023/06/10 06:09:29;;;;;;;6.32;4.63;;;19.90;92.10;;;;;;4835813;29;20109;-72
2023/06/10 06:11:55;;;;;;;6.88;4.57;;;19.90;91.90;;;;;;4852704;29;20037;-70
2023/06/10 06:14:20;;;;;;;7.35;4.68;;;20.00;91.90;;;;;;4852234;29;20219;-70
2023/06/10 06:16:46;;;;;;;5.68;3.88;;;20.10;92.00;;;;;;4851950;29;20037;-70
2023/06/10 06:19:11;;;;;;;7.25;4.90;;;20.20;91.80;;;;;;4836442;29;20044;-70
2023/06/10 06:21:37;;;;;;;6.90;4.25;;;20.30;90.90;;;;;;4851708;29;20034;-71
2023/06/10 06:24:03;;;;;;;5.90;4.30;;;20.40;91.50;;;;;;4852209;29;20048;-73
2023/06/10 06:26:29;;;;;;;6.57;4.07;;;20.50;91.50;;;;;;4851611;29;20089;-71
2023/06/10 06:28:54;;;;;;;5.55;4.10;;;20.60;91.30;;;;;;4852150;29;20110;-70
2023/06/10 06:31:20;;;;;;;8.27;4.35;;;20.70;91.00;;;;;;4852389;29;20034;-70
2023/06/10 06:33:46;;;;;;;6.22;4.30;;;20.70;90.70;;;;;;4851575;29;20113;-70
2023/06/10 06:36:11;;;;;;;7.07;4.28;;;20.80;90.90;;;;;;4852093;29;20018;-70
2023/06/10 06:38:37;;;;;;;11.82;8.45;;;20.90;91.00;;;;;;4852228;29;20338;-70
2023/06/10 06:41:06;;;;;;;5.72;4.80;;;21.00;90.60;;;;;;4836376;29;20026;-70
2023/06/10 06:43:32;;;;;;;6.55;4.65;;;21.10;90.40;;;;;;4852748;29;20211;-70
2023/06/10 06:46:23;;;;;;;6.50;4.38;;;21.30;90.50;;;;;;4852978;29;20374;-70
2023/06/10 06:48:48;;;;;;;7.70;4.50;;;21.40;90.30;;;;;;4852405;29;20030;-69
2023/06/10 06:51:14;;;;;;;6.68;4.40;;;21.50;90.10;;;;;;4853243;29;20083;-70
2023/06/10 06:53:46;;;;;;;5.72;4.60;;;21.60;90.00;;;;;;4852668;29;20038;-71
2023/06/10 06:56:13;;;;;;;5.95;4.60;;;21.70;89.70;;;;;;4853631;29;20101;-73
2023/06/10 06:58:39;;;;;;;6.68;4.30;;;21.70;89.30;;;;;;4851411;29;20086;-76
2023/06/10 07:01:05;;;;;;;5.82;4.68;;;21.80;89.10;;;;;;4836071;29;20053;-70
2023/06/10 07:03:31;;;;;;;5.20;4.32;;;21.80;88.20;;;;;;4851472;29;20065;-70
2023/06/10 07:05:57;;;;;;;8.32;4.45;;;21.80;88.30;;;;;;4852036;29;20038;-71
2023/06/10 07:08:23;;;;;;;7.35;4.60;;;21.90;88.50;;;;;;4851805;29;20058;-70
2023/06/10 07:10:49;;;;;;;4.57;3.95;;;21.90;87.70;;;;;;4851864;29;20074;-69
2023/06/10 07:13:15;;;;;;;5.95;4.13;;;22.10;87.20;;;;;;4852738;29;20032;-71
2023/06/10 07:15:40;;;;;;;5.55;4.40;;;22.10;87.30;;;;;;4852267;29;20038;-70
2023/06/10 07:18:06;;;;;;;8.85;7.40;;;22.10;87.20;;;;;;4852909;29;20038;-70
2023/06/10 07:20:32;;;;;;;6.60;5.20;;;22.10;86.60;;;;;;4852371;29;20104;-70
2023/06/10 07:22:57;;;;;;;5.75;4.35;;;22.30;87.50;;;;;;4852677;29;20033;-71
2023/06/10 07:25:23;;;;;;;5.53;4.15;;;22.30;87.00;;;;;;4852777;29;20211;-71
2023/06/10 07:27:49;;;;;;;6.13;4.30;;;22.50;86.50;;;;;;4854922;29;20073;-72
2023/06/10 07:30:15;;;;;;;5.90;4.47;;;22.70;86.70;;;;;;4855593;29;20041;-71
2023/06/10 07:32:41;;;;;;;4.85;4.18;;;22.90;85.60;;;;;;4854606;29;20038;-70
2023/06/10 07:35:09;;;;;;;5.68;4.30;;;22.90;85.30;;;;;;4849022;29;20211;-71
2023/06/10 07:37:36;;;;;;;5.20;4.13;;;23.00;84.50;;;;;;4850839;29;20037;-69
2023/06/10 07:40:02;;;;;;;7.47;4.47;;;23.10;84.70;;;;;;4855509;29;20082;-68
2023/06/10 07:42:27;;;;;;;5.47;4.03;;;23.10;84.60;;;;;;4854965;29;20033;-69
2023/06/10 07:44:53;;;;;;;4.80;4.03;;;23.20;84.30;;;;;;4854502;29;20041;-69
2023/06/10 07:47:19;;;;;;;5.80;4.18;;;23.30;83.70;;;;;;4854921;29;20071;-68
2023/06/10 07:49:45;;;;;;;5.43;4.40;;;23.30;83.90;;;;;;4854853;29;20038;-69
2023/06/10 07:52:10;;;;;;;5.75;4.13;;;23.30;84.10;;;;;;4854412;29;20033;-70
2023/06/10 07:54:42;;;;;;;5.05;4.20;;;23.30;83.90;;;;;;4853458;29;20033;-68
2023/06/10 07:57:08;;;;;;;4.80;3.97;;;23.30;84.20;;;;;;4836225;29;20058;-69
2023/06/10 07:59:34;;;;;;;5.55;3.97;;;23.50;84.20;;;;;;4853947;29;20196;-70
2023/06/10 08:02:02;;;;;;;4.47;3.58;;;23.60;83.50;;;;;;4854377;29;20060;-70
2023/06/10 08:04:30;;;;;;;17.85;4.60;;;23.70;83.00;;;;;;4855179;29;20033;-69
2023/06/10 08:06:57;;;;;;;5.75;3.97;;;23.90;82.20;;;;;;4854710;29;20268;-68
2023/06/10 08:09:23;;;;;;;6.40;3.55;;;24.00;81.30;;;;;;4854855;29;20128;-69
2023/06/10 08:11:49;;;;;;;5.78;3.70;;;24.00;81.40;;;;;;4854965;29;20038;-71
2023/06/10 08:14:16;;;;;;;4.50;3.63;;;24.20;81.20;;;;;;4854326;29;20096;-73
2023/06/10 08:16:42;;;;;;;4.68;3.70;;;24.30;80.10;;;;;;4854099;29;20323;-69
2023/06/10 08:19:09;;;;;;;6.13;4.05;;;24.30;79.50;;;;;;4854682;29;20274;-69
2023/06/10 08:21:37;;;;;;;5.32;3.88;;;24.40;79.50;;;;;;4854389;29;20053;-70
2023/06/10 08:24:03;;;;;;;6.35;4.10;;;24.50;79.40;;;;;;4854303;29;20038;-71
2023/06/10 08:26:29;;;;;;;5.00;4.00;;;24.60;79.10;;;;;;4854018;29;20034;-70
2023/06/10 08:28:55;;;;;;;5.53;4.18;;;24.70;79.10;;;;;;4853856;29;20185;-71
2023/06/10 08:31:21;;;;;;;6.32;4.30;;;24.90;77.40;;;;;;4854307;29;20080;-70
2023/06/10 08:33:46;;;;;;;5.63;3.95;;;24.90;78.20;;;;;;4854402;29;20212;-69
2023/06/10 08:36:12;;;;;;;5.53;3.90;;;25.00;78.30;;;;;;4853829;29;20033;-70
2023/06/10 08:38:38;;;;;;;4.95;3.80;;;25.10;77.30;;;;;;4853604;29;20030;-71
2023/06/10 08:41:05;;;;;;;6.85;3.90;;;25.10;76.80;;;;;;4854194;29;20037;-72
2023/06/10 08:43:59;;;;;;;5.05;3.50;;;25.10;76.50;;;;;;4853892;29;20098;-70
2023/06/10 08:46:32;;;;;;;8.18;3.88;;;25.20;76.30;;;;;;4853750;29;20082;-71
2023/06/10 08:49:02;;;;;;;5.35;3.92;;;25.30;76.60;;;;;;4853439;29;20037;-71
2023/06/10 08:51:29;;;;;;;6.25;3.53;;;25.30;76.30;;;;;;4853554;29;20231;-70
2023/06/10 08:54:09;;;;;;;4.63;3.38;;;25.30;75.30;;;;;;4853359;29;20256;-74
2023/06/10 08:56:39;;;;;;;4.03;3.10;;;25.50;76.00;;;;;;4853249;29;20134;-72
2023/06/10 08:59:05;;;;;;;4.15;3.38;;;25.60;74.70;;;;;;4853724;29;20042;-72
2023/06/10 09:01:31;;;;;;;4.75;3.40;;;25.70;73.70;;;;;;4837073;29;20064;-72
2023/06/10 09:03:59;;;;;;;4.65;3.47;;;25.70;74.70;;;;;;4852512;29;20087;-72
2023/06/10 09:06:26;;;;;;;4.95;3.38;;;25.80;74.00;;;;;;4853455;29;20305;-71
2023/06/10 09:08:52;;;;;;;4.10;3.22;;;25.80;74.30;;;;;;4852593;29;20203;-71
2023/06/10 09:11:18;;;;;;;4.13;3.58;;;25.80;73.80;;;;;;4853580;29;20037;-70
2023/06/10 09:13:44;;;;;;;5.07;3.80;;;25.70;73.50;;;;;;4852630;29;20239;-72
2023/06/10 09:16:11;;;;;;;5.30;3.50;;;25.80;73.90;;;;;;4853559;29;20101;-72
2023/06/10 09:18:37;;;;;;;4.68;3.00;;;25.90;73.40;;;;;;4852814;29;20109;-74
2023/06/10 09:21:03;;;;;;;3.97;3.45;;;26.00;73.90;;;;;;4853253;29;20105;-72
2023/06/10 09:23:29;;;;;;;5.40;3.40;;;26.00;73.40;;;;;;4853016;29;20030;-71
2023/06/10 09:25:58;;;;;;;4.85;3.70;;;26.10;73.50;;;;;;4852587;29;20045;-73
2023/06/10 09:28:24;;;;;;;6.75;5.85;;;26.20;73.80;;;;;;4853052;29;20033;-73
2023/06/10 09:31:00;;;;;;;5.25;4.22;;;26.30;73.40;;;;;;4852273;29;20362;-72
2023/06/10 09:33:26;;;;;;;4.50;3.60;;;26.40;73.20;;;;;;4853183;29;20379;-71
2023/06/10 09:35:52;;;;;;;6.32;3.72;;;26.50;73.40;;;;;;4852079;29;20034;-71
2023/06/10 09:38:22;;;;;;;5.18;3.58;;;26.50;72.40;;;;;;4852760;29;20018;-71
2023/06/10 09:40:50;;;;;;;4.72;3.28;;;26.60;73.20;;;;;;4852550;29;20038;-72
2023/06/10 09:43:15;;;;;;;4.68;3.63;;;26.80;72.40;;;;;;4852572;29;20040;-72
2023/06/10 09:45:43;;;;;;;4.57;3.53;;;26.80;72.00;;;;;;4852112;29;20105;-70
2023/06/10 09:48:09;;;;;;;5.57;3.67;;;26.80;71.70;;;;;;4852359;29;20089;-71
2023/06/10 09:50:41;;;;;;;4.45;3.67;;;26.80;71.90;;;;;;4852908;29;20034;-72
2023/06/10 09:53:06;;;;;;;4.25;3.45;;;26.70;71.60;;;;;;4852736;29;20030;-70
2023/06/10 09:55:33;;;;;;;4.60;3.63;;;26.70;72.10;;;;;;4852538;29;20030;-72
2023/06/10 09:57:59;;;;;;;4.60;3.83;;;26.70;72.30;;;;;;4852381;29;20030;-71
2023/06/10 10:00:25;;;;;;;5.18;3.78;;;26.80;72.20;;;;;;4853168;29;20094;-71
2023/06/10 10:02:53;;;;;;;4.88;3.72;;;26.80;72.10;;;;;;4836058;29;20347;-71
2023/06/10 10:05:21;;;;;;;6.43;3.87;;;26.80;72.30;;;;;;4852713;29;20037;-72
2023/06/10 10:07:47;;;;;;;5.15;3.75;;;26.50;71.50;;;;;;4851909;29;20447;-72
2023/06/10 10:10:18;;;;;;;4.85;3.53;;;26.80;72.00;;;;;;4852561;29;20086;-71
2023/06/10 10:12:46;;;;;;;4.15;3.50;;;27.10;71.70;;;;;;4851706;29;20074;-72
2023/06/10 10:15:12;;;;;;;4.82;3.58;;;27.50;70.80;;;;;;4852471;29;20029;-70
2023/06/10 10:17:48;;;;;;;7.00;3.60;;;27.80;70.80;;;;;;4852054;29;20210;-72
2023/06/10 10:20:19;;;;;;;3.83;2.90;;;28.20;69.20;;;;;;4836341;29;20243;-71
2023/06/10 10:22:49;;;;;;;4.47;3.30;;;28.30;68.80;;;;;;4851476;29;20037;-71
2023/06/10 10:25:24;;;;;;;4.53;3.20;;;28.10;68.10;;;;;;4852237;29;20045;-71
2023/06/10 10:28:09;;;;;;;3.72;3.33;;;28.10;68.50;;;;;;4851476;29;20045;-72
2023/06/10 10:30:44;;;;;;;4.60;3.40;;;28.20;68.80;;;;;;4852232;29;20048;-75
2023/06/10 10:33:17;;;;;;;3.92;3.10;;;28.30;67.60;;;;;;4851957;29;20042;-72
2023/06/10 10:35:43;;;;;;;4.50;3.47;;;28.50;67.40;;;;;;4851608;29;20093;-72
2023/06/10 10:38:10;;;;;;;4.82;3.63;;;28.70;67.90;;;;;;4852392;29;20029;-72
2023/06/10 10:40:36;;;;;;;4.75;3.72;;;28.90;66.60;;;;;;4835975;29;20157;-70
2023/06/10 10:43:03;;;;;;;3.63;2.78;;;28.90;65.10;;;;;;4851186;29;20030;-70
2023/06/10 10:45:29;;;;;;;5.82;3.60;;;29.00;64.90;;;;;;4851805;29;20037;-70
2023/06/10 10:47:57;;;;;;;4.07;2.70;;;29.00;64.30;;;;;;4851207;29;20041;-71
2023/06/10 10:50:24;;;;;;;4.93;3.38;;;29.10;64.90;;;;;;4851900;29;20049;-72
2023/06/10 10:52:55;;;;;;;4.50;3.80;;;29.30;65.00;;;;;;4851035;29;20043;-71
2023/06/10 10:55:25;;;;;;;4.97;3.30;;;29.60;64.40;;;;;;4851746;29;20041;-72
2023/06/10 10:58:16;;;;;;;8.02;3.45;;;29.70;63.90;;;;;;4851575;29;20060;-68
2023/06/10 11:00:45;;;;;;;4.15;3.30;;;29.90;63.80;;;;;;4851323;29;20033;-72
2023/06/10 11:03:17;;;;;;;4.78;3.17;;;29.80;63.40;;;;;;4851090;29;20054;-69
2023/06/10 11:05:47;;;;;;;4.88;3.40;;;29.90;63.60;;;;;;4851147;29;20038;-70
2023/06/10 11:08:14;;;;;;;4.55;3.25;;;30.10;64.20;;;;;;4820223;29;20057;-69
2023/06/10 11:10:50;;;;;;;5.70;3.42;;;30.10;64.20;;;;;;4851600;29;20123;-69
2023/06/10 11:13:18;;;;;;;4.35;3.42;;;29.90;63.90;;;;;;4835335;29;20091;-74
2023/06/10 11:15:46;;;;;;;5.45;3.65;;;29.70;64.50;;;;;;4850966;29;20060;-73
2023/06/10 11:18:13;;;;;;;3.97;3.25;;;29.80;64.30;;;;;;4851671;29;20034;-69
2023/06/10 11:20:48;;;;;;;3.70;2.95;;;29.90;63.90;;;;;;4851450;29;20044;-69
2023/06/10 11:23:29;;;;;;;5.32;3.13;;;30.10;63.90;;;;;;4851280;29;20060;-70
2023/06/10 11:26:17;;;;;;;4.95;3.28;;;30.30;63.10;;;;;;4851101;29;20053;-71
2023/06/10 11:28:46;;;;;;;4.63;3.22;;;30.60;61.30;;;;;;4851619;29;20252;-70
2023/06/10 11:31:23;;;;;;;4.28;3.30;;;30.60;60.90;;;;;;4851658;29;20034;-69
2023/06/10 11:34:06;;;;;;;4.63;3.47;;;30.70;61.60;;;;;;4851134;29;20040;-71
2023/06/10 11:36:33;;;;;;;4.30;3.05;;;31.10;61.60;;;;;;4851286;29;20048;-71
2023/06/10 11:39:02;;;;;;;3.88;3.25;;;31.30;60.70;;;;;;4850749;29;20022;-71
2023/06/10 11:41:30;;;;;;;4.03;3.20;;;31.70;60.30;;;;;;4851290;29;20037;-70
2023/06/10 11:44:00;;;;;;;4.53;3.28;;;32.30;59.10;;;;;;4850811;29;20037;-71
2023/06/10 11:46:29;;;;;;;4.15;2.97;;;32.90;59.00;;;;;;4851170;29;20113;-71
2023/06/10 11:48:57;;;;;;;3.55;3.00;;;33.00;58.70;;;;;;4851071;29;20101;-70
2023/06/10 11:51:26;;;;;;;3.40;2.80;;;34.00;57.60;;;;;;4836825;29;20327;-73
2023/06/10 11:53:52;;;;;;;3.95;2.85;;;35.10;56.20;;;;;;4869192;29;20021;-70
2023/06/10 11:56:29;;;;;;;4.57;2.90;;;35.50;54.90;;;;;;4869979;29;20029;-71
2023/06/10 11:59:04;;;;;;;3.55;2.70;;;34.60;55.30;;;;;;4869500;29;20056;-70
2023/06/10 12:01:30;;;;;;;3.80;2.85;;;33.90;56.40;;;;;;4870426;29;20089;-70
2023/06/10 12:04:07;;;;;;;3.80;2.80;;;34.00;56.50;;;;;;4870529;29;20113;-72
2023/06/10 12:06:47;;;;;;;5.15;2.95;;;35.30;55.20;;;;;;4870449;29;20033;-71
2023/06/10 12:09:25;;;;;;;5.05;2.60;;;35.40;53.80;;;;;;4870110;29;20034;-71
2023/06/10 12:12:02;;;;;;;2.88;2.55;;;34.30;54.70;;;;;;4863378;29;20042;-70
2023/06/10 12:14:53;;;;;;;4.27;2.93;;;33.20;56.20;;;;;;4873149;29;20041;-72
2023/06/10 12:17:22;;;;;;;4.07;2.83;;;32.50;56.80;;;;;;4867708;29;20454;-71
2023/06/10 12:19:47;;;;;;;3.53;2.65;;;32.50;57.10;;;;;;4867904;29;20222;-71
2023/06/10 12:22:14;;;;;;;5.97;2.83;;;33.50;56.60;;;;;;4872876;29;20041;-73
2023/06/10 12:25:01;;;;;;;3.22;2.60;;;34.90;54.10;;;;;;4872713;29;20170;-71
2023/06/10 12:27:29;;;;;;;3.08;2.42;;;36.10;52.20;;;;;;4871987;29;20041;-72
2023/06/10 12:30:00;;;;;;;3.47;2.35;;;36.50;51.50;;;;;;4872456;29;20106;-71
2023/06/10 12:32:45;;;;;;;3.92;2.50;;;35.80;52.10;;;;;;4872812;29;20074;-71
2023/06/10 12:35:13;;;;;;;5.13;3.00;;;34.50;53.40;;;;;;4871871;29;20341;-72
2023/06/10 12:37:39;;;;;;;4.78;2.70;;;33.60;54.60;;;;;;4872806;29;20100;-71
2023/06/10 12:40:06;;;;;;;3.08;2.67;;;32.80;55.10;;;;;;4872163;29;20033;-70
2023/06/10 12:42:35;;;;;;;3.55;2.83;;;32.20;56.50;;;;;;4872974;29;20202;-69
2023/06/10 12:45:01;;;;;;;3.75;2.70;;;32.60;56.20;;;;;;4871598;29;20045;-71
2023/06/10 12:47:41;;;;;;;4.22;2.40;;;34.10;55.10;;;;;;4872443;29;20060;-70
2023/06/10 12:50:07;;;;;;;3.40;2.60;;;36.80;52.30;;;;;;4872006;29;20053;-75
2023/06/10 12:52:33;;;;;;;2.97;2.20;;;38.90;50.10;;;;;;4872536;29;20017;-76
2023/06/10 12:55:00;;;;;;;3.83;2.50;;;40.40;48.20;;;;;;4870389;29;20063;-72
2023/06/10 12:57:26;;;;;;;2.97;2.45;;;41.80;47.20;;;;;;4871980;29;20034;-74
2023/06/10 13:00:00;;;;;;;3.53;2.33;;;40.60;47.10;;;;;;4871707;29;20045;-73
2023/06/10 13:02:25;;;;;;;3.65;2.35;;;39.20;48.20;;;;;;4871817;29;20399;-71
2023/06/10 13:04:51;;;;;;;4.25;2.50;;;37.90;49.30;;;;;;4871532;29;20069;-71
2023/06/10 13:07:17;;;;;;;2.85;2.50;;;37.00;50.00;;;;;;4871870;29;20033;-72
2023/06/10 13:09:43;;;;;;;3.20;2.50;;;36.90;50.00;;;;;;4871934;29;20101;-71
2023/06/10 13:12:09;;;;;;;5.10;3.63;;;37.40;50.10;;;;;;4871371;29;20029;-73
2023/06/10 13:14:37;;;;;;;4.70;3.15;;;37.30;50.20;;;;;;4871654;29;20021;-74
2023/06/10 13:17:06;;;;;;;3.28;2.63;;;36.80;50.20;;;;;;4871184;29;20277;-72
2023/06/10 13:19:33;;;;;;;7.63;3.50;;;37.60;49.50;;;;;;4871631;29;20272;-73
2023/06/10 13:21:58;;;;;;;4.37;3.00;;;39.10;48.60;;;;;;4871532;29;20048;-74
2023/06/10 13:24:24;;;;;;;6.30;3.40;;;40.60;47.10;;;;;;4870478;29;20041;-74
2023/06/10 13:26:50;;;;;;;3.47;2.10;;;42.50;46.10;;;;;;4871757;29;20222;-72
2023/06/10 13:29:16;;;;;;;3.00;2.33;;;43.60;45.30;;;;;;4871705;29;20038;-71
2023/06/10 13:31:42;;;;;;;2.80;1.85;;;44.50;44.60;;;;;;4871322;29;20030;-74
2023/06/10 13:34:08;;;;;;;3.63;2.50;;;45.10;43.20;;;;;;4871246;29;20040;-74
2023/06/10 13:36:33;;;;;;;5.03;3.73;;;46.10;43.50;;;;;;4871526;29;20022;-71
2023/06/10 13:38:59;;;;;;;5.03;2.87;;;45.50;43.00;;;;;;4871204;29;20044;-71
2023/06/10 13:41:27;;;;;;;5.00;3.70;;;44.00;43.10;;;;;;4871412;29;20033;-72
2023/06/10 13:43:53;;;;;;;3.92;2.85;;;41.10;44.70;;;;;;4870614;29;20068;-71
2023/06/10 13:46:21;;;;;;;3.40;2.33;;;38.90;46.10;;;;;;4871174;29;20339;-70
2023/06/10 13:48:47;;;;;;;4.97;2.65;;;37.10;48.10;;;;;;4870997;29;20089;-71
2023/06/10 13:51:13;;;;;;;7.05;4.15;;;35.80;49.30;;;;;;4870501;29;20045;-69
2023/06/10 13:53:38;;;;;;;5.57;3.75;;;34.80;50.60;;;;;;4871459;29;20029;-69
2023/06/10 13:56:05;;;;;;;4.47;2.95;;;34.20;51.00;;;;;;4870594;29;20040;-71
2023/06/10 13:58:31;;;;;;;3.00;2.53;;;34.20;51.10;;;;;;4871129;29;20042;-69
2023/06/10 14:00:58;;;;;;;4.78;2.67;;;35.90;50.00;;;;;;4870497;29;20056;-70
2023/06/10 14:03:24;;;;;;;2.80;2.10;;;38.60;48.00;;;;;;4870786;29;20051;-70
2023/06/10 14:05:50;;;;;;;4.20;2.30;;;41.20;45.30;;;;;;4870576;29;20122;-71
2023/06/10 14:08:15;;;;;;;4.28;2.35;;;43.10;44.90;;;;;;4870394;29;20061;-71
2023/06/10 14:10:41;;;;;;;3.55;2.08;;;44.80;43.30;;;;;;4871100;29;20037;-72
2023/06/10 14:13:07;;;;;;;3.53;2.53;;;44.40;42.60;;;;;;4870642;29;20062;-71
2023/06/10 14:15:32;;;;;;;2.78;2.03;;;43.10;43.50;;;;;;4870687;29;20072;-69
2023/06/10 14:17:58;;;;;;;3.65;2.53;;;44.00;43.40;;;;;;4870254;29;20101;-72
2023/06/10 14:20:26;;;;;;;4.03;2.75;;;42.90;43.10;;;;;;4870695;29;20053;-71
2023/06/10 14:22:52;;;;;;;4.22;2.50;;;41.30;44.60;;;;;;4870937;29;20303;-70
2023/06/10 14:25:18;;;;;;;4.43;2.58;;;39.60;45.50;;;;;;4870308;29;20048;-69
2023/06/10 14:27:43;;;;;;;5.90;2.58;;;39.10;46.40;;;;;;4870449;29;20222;-70
2023/06/10 14:30:09;;;;;;;3.13;1.98;;;40.50;45.30;;;;;;4870107;29;20045;-70
2023/06/10 14:32:35;;;;;;;3.17;2.15;;;42.40;43.60;;;;;;4868107;29;20057;-70
2023/06/10 14:35:01;;;;;;;3.33;1.70;;;43.80;43.00;;;;;;4869806;29;20097;-71
2023/06/10 14:37:27;;;;;;;2.60;1.80;;;45.20;42.60;;;;;;4870514;29;20097;-69
2023/06/10 14:39:52;;;;;;;2.58;2.17;;;45.30;41.20;;;;;;4870793;29;20044;-71
2023/06/10 14:42:18;;;;;;;8.23;3.28;;;;;;;;;;4869956;29;20033;-71
2023/06/10 14:44:44;;;;;;;5.63;2.50;;;41.80;43.00;;;;;;4858154;29;20322;-70
2023/06/10 14:47:10;;;;;;;3.13;2.30;;;39.90;45.00;;;;;;4864586;29;20036;-69
2023/06/10 14:49:35;;;;;;;2.80;2.33;;;38.40;46.20;;;;;;4869733;29;20093;-71
2023/06/10 14:52:01;;;;;;;3.40;2.63;;;37.00;47.60;;;;;;4861551;29;20045;-70
2023/06/10 14:54:27;;;;;;;5.55;2.67;;;37.00;47.60;;;;;;4876336;29;20320;-71
2023/06/10 14:56:53;;;;;;;3.80;1.83;;;38.20;46.60;;;;;;4852055;29;20038;-71
2023/06/10 14:59:18;;;;;;;3.38;1.98;;;39.90;45.80;;;;;;4853890;29;20045;-72
2023/06/10 15:01:44;;;;;;;3.70;2.15;;;41.60;44.40;;;;;;4870276;29;20117;-71
2023/06/10 15:04:10;;;;;;;3.20;2.70;;;43.50;43.50;;;;;;4869828;29;20223;-71
2023/06/10 15:06:35;;;;;;;3.03;2.25;;;43.70;42.70;;;;;;4870447;29;20088;-70
2023/06/10 15:09:01;;;;;;;3.38;2.30;;;43.70;42.90;;;;;;4869372;29;20037;-71
2023/06/10 15:11:27;;;;;;;8.20;2.50;;;44.30;42.40;;;;;;4870272;29;20089;-72
2023/06/10 15:13:53;;;;;;;3.55;2.45;;;45.10;42.20;;;;;;4869820;29;20311;-69
2023/06/10 15:16:18;;;;;;;2.50;2.20;;;45.90;42.20;;;;;;4869247;29;20101;-70
2023/06/10 15:18:44;;;;;;;2.28;2.08;;;45.70;41.40;;;;;;4869908;29;20303;-69
2023/06/10 15:21:10;;;;;;;2.50;2.20;;;46.00;41.40;;;;;;4869992;29;20376;-69
2023/06/10 15:23:35;;;;;;;2.95;2.33;;;46.10;41.50;;;;;;4869893;29;20045;-71
2023/06/10 15:26:01;;;;;;;3.20;2.55;;;43.90;41.80;;;;;;4869688;29;20279;-71
2023/06/10 15:28:27;;;;;;;3.25;2.38;;;41.90;43.30;;;;;;4870323;29;20085;-68
2023/06/10 15:30:52;;;;;;;4.15;2.42;;;41.60;43.30;;;;;;4857030;29;20087;-70
2023/06/10 15:33:18;;;;;;;2.83;2.25;;;41.40;43.40;;;;;;4835079;29;20034;-70
2023/06/10 15:35:44;;;;;;;2.95;2.50;;;41.10;43.10;;;;;;4832250;29;20071;-68
2023/06/10 15:38:09;;;;;;;3.05;2.30;;;41.50;43.70;;;;;;4851114;29;20018;-69
2023/06/10 15:40:35;;;;;;;2.40;2.20;;;43.30;42.50;;;;;;4851571;29;20038;-70
2023/06/10 15:43:01;;;;;;;2.35;2.13;;;43.70;41.90;;;;;;4851010;29;20089;-70
2023/06/10 15:45:27;;;;;;;3.33;2.10;;;44.90;41.70;;;;;;4851506;29;20212;-72
2023/06/10 15:47:52;;;;;;;2.85;2.33;;;44.40;41.50;;;;;;4854245;29;20045;-72
2023/06/10 15:50:18;;;;;;;2.65;2.05;;;43.50;41.90;;;;;;4854387;29;20026;-70
2023/06/10 15:52:47;;;;;;;2.50;2.00;;;44.00;42.10;;;;;;4855142;29;20034;-72
2023/06/10 15:55:12;;;;;;;2.40;1.92;;;45.10;41.20;;;;;;4854610;29;20038;-72
2023/06/10 15:57:38;;;;;;;2.78;1.73;;;45.30;41.10;;;;;;4854893;29;20038;-71
2023/06/10 16:00:06;;;;;;;2.55;1.70;;;45.10;40.80;;;;;;4854358;29;20045;-70
2023/06/10 16:02:31;;;;;;;2.70;2.10;;;44.50;41.10;;;;;;4837831;29;20071;-71
2023/06/10 16:04:57;;;;;;;2.90;1.90;;;44.30;40.80;;;;;;4854951;29;20320;-72
2023/06/10 16:07:23;;;;;;;3.92;2.00;;;45.10;40.30;;;;;;4854558;29;20057;-71
2023/06/10 16:09:48;;;;;;;2.30;1.70;;;45.60;40.40;;;;;;4854568;29;20045;-69
2023/06/10 16:12:14;;;;;;;2.15;1.65;;;46.50;40.10;;;;;;4853916;29;20324;-71
2023/06/10 16:14:40;;;;;;;3.67;1.90;;;46.90;39.80;;;;;;4854565;29;20026;-71
2023/06/10 16:17:05;;;;;;;2.45;1.75;;;47.00;39.70;;;;;;4825944;29;20350;-71
2023/06/10 16:19:31;;;;;;;3.83;2.15;;;46.80;39.90;;;;;;4835685;29;20069;-72
2023/06/10 16:21:57;;;;;;;2.70;2.08;;;46.00;40.40;;;;;;4835893;29;20049;-71
2023/06/10 16:24:23;;;;;;;3.10;2.00;;;45.50;40.40;;;;;;4834172;29;20097;-71
2023/06/10 16:26:49;;;;;;;2.95;2.00;;;45.90;40.50;;;;;;4835781;29;20046;-72
2023/06/10 16:29:15;;;;;;;2.38;2.10;;;46.80;40.30;;;;;;4835148;29;20139;-69
2023/06/10 16:31:41;;;;;;;2.60;1.88;;;45.70;41.00;;;;;;4835641;29;20038;-72
2023/06/10 16:34:06;;;;;;;2.38;2.00;;;46.10;40.50;;;;;;4835261;29;20065;-71
2023/06/10 16:36:32;;;;;;;3.75;1.90;;;46.60;40.20;;;;;;4835506;29;20045;-71
2023/06/10 16:38:58;;;;;;;2.20;1.55;;;46.80;39.60;;;;;;4835725;29;20332;-69
2023/06/10 16:41:24;;;;;;;2.35;1.63;;;45.90;40.10;;;;;;4834748;29;20030;-70
2023/06/10 16:43:50;;;;;;;2.58;1.70;;;44.60;40.30;;;;;;4835867;29;20030;-71
2023/06/10 16:46:16;;;;;;;2.80;1.73;;;43.70;40.80;;;;;;4835067;29;20310;-69
2023/06/10 16:48:44;;;;;;;2.60;1.88;;;43.20;41.50;;;;;;4835593;29;20024;-70
2023/06/10 16:51:10;;;;;;;2.90;2.00;;;43.40;41.50;;;;;;4835024;29;20034;-72
2023/06/10 16:53:36;;;;;;;4.82;2.00;;;42.40;42.00;;;;;;4819166;29;20084;-71
2023/06/10 16:56:02;;;;;;;2.28;2.00;;;41.70;42.50;;;;;;4835413;29;20305;-70
2023/06/10 16:58:28;;;;;;;2.40;1.80;;;42.20;42.40;;;;;;4840487;29;20095;-72
2023/06/10 17:00:56;;;;;;;4.13;2.25;;;42.60;42.60;;;;;;4853490;29;20042;-73
2023/06/10 17:03:22;;;;;;;2.03;1.80;;;43.00;42.20;;;;;;4853285;29;20102;-71
2023/06/10 17:05:48;;;;;;;3.13;2.28;;;43.60;41.70;;;;;;4853543;29;20053;-71
2023/06/10 17:08:13;;;;;;;2.05;1.70;;;43.10;41.90;;;;;;4852648;29;20034;-72
2023/06/10 17:10:39;;;;;;;2.85;2.00;;;43.90;41.70;;;;;;4853658;29;20224;-71
2023/06/10 17:13:05;;;;;;;2.40;1.90;;;44.20;41.40;;;;;;4852702;29;20030;-73
2023/06/10 17:15:31;;;;;;;2.13;1.80;;;44.90;40.90;;;;;;4853452;29;20106;-69
2023/06/10 17:17:57;;;;;;;3.20;1.90;;;44.60;40.90;;;;;;4853546;29;20256;-71
2023/06/10 17:20:23;;;;;;;2.13;1.60;;;44.40;41.10;;;;;;4852532;29;20041;-71
2023/06/10 17:22:48;;;;;;;3.08;2.05;;;44.20;41.10;;;;;;4838177;29;20049;-71
2023/06/10 17:25:14;;;;;;;2.75;2.10;;;44.40;41.00;;;;;;4855860;29;20053;-71
2023/06/10 17:27:40;;;;;;;2.17;1.90;;;43.90;40.70;;;;;;4852973;29;20045;-71
2023/06/10 17:30:06;;;;;;;3.97;1.77;;;43.10;41.30;;;;;;4852330;29;20046;-71
2023/06/10 17:32:33;;;;;;;2.90;2.30;;;41.50;42.20;;;;;;4852751;29;20368;-71
2023/06/10 17:34:59;;;;;;;3.03;2.42;;;40.30;43.20;;;;;;4853059;29;20147;-70
2023/06/10 17:37:24;;;;;;;2.70;2.10;;;39.60;44.00;;;;;;4852615;29;20038;-72
2023/06/10 17:39:51;;;;;;;2.15;1.85;;;39.40;44.30;;;;;;4852816;29;20116;-71
2023/06/10 17:42:17;;;;;;;3.47;2.35;;;39.80;44.20;;;;;;4852158;29;20042;-70
2023/06/10 17:44:43;;;;;;;4.63;2.47;;;40.40;43.80;;;;;;4852948;29;20042;-71
2023/06/10 17:47:08;;;;;;;3.58;2.42;;;40.30;44.10;;;;;;4852222;29;20033;-71
2023/06/10 17:49:34;;;;;;;5.47;2.53;;;40.00;43.90;;;;;;4852612;29;20046;-70
2023/06/10 17:52:00;;;;;;;2.67;2.08;;;38.90;44.40;;;;;;4852598;29;20042;-70